Airfield :
LOGIN :

Register | Disclaimer

   EN    FR    IT 

 










Legend :    VFR   Marginal VFR   IFR   Intensive IFR   Very Intensive IFR
Visi :
Ceiling :
>= 8 km
>= 3000ft
5 to 8 km
1000 to 3000 ft
1500m to 5 km
500 to 1000 ft
800 to 1500m
200 to 500 ft
< 800m
< 200 ft
Symbols :   Thunderstorms  Fog  Heavy snow  Heavy precipitations  Wind > 20 kt
SIGMETs :     Misc.  Thunderstorms  Icing  Turbulence  Mountain Waves  Volcanic Ashes







- Airport Elevation : 75 ft
- IATA code : YEO


EGDY - RNAS Yeovilton

CURRENT METAR :
  • 180650Z 28017KT 9999 SCT030 08/04 Q1001 BLU NOSIG

EXPIRED METARs :
  • 180550Z 28021KT 9999 FEW030 08/04 Q1000 BLU
  • 180450Z 28027KT 9999 BKN045 09/04 Q0999 BLU

TAF TAF EGDY
Valid from the 18 at 07:00 until the 18 at 16:00 UTC


180545Z 1807/1816 28015G30KT 9999 SCT040
TEMPO 1807/1816 8000 -SHRA BKN020
BECMG 1809/1811 28010G20KT
No reported NOTAMs for that airfield.
1 SIGMET reported for the London FIR (EGTT) :
 
Severe turbulence
EGTT SIGMET 04 VALID 180640/181030 EGRR
EGTT LONDON FIR SEV TURB FCST E OF LINE N4955 W00225 - N5500 W00311 SFC/FL060 MOV E 45KT INTSF=



MET'MAP, your aeronautical weather chart ! - Copyright ORBIFLY December 2007 - Disclaimer

ORBIFLY MET'MAP TEAM :

Programming & Development : Alexandra Zaïnal
Concept & Development : Baudouin d'Aumeries
Co-Development & Prog : Marc-Olivier Méhu
Technical & hardware support : Manuel Goepfert

Contact : metmap@orbifly.com




SOURCES & CREDITS :

   NOAA